createdAt,value
2023-03-06T00:01:32.831Z,7.80
2023-03-06T00:04:01.132Z,7.80
2023-03-06T00:06:29.437Z,7.80
2023-03-06T00:08:57.812Z,7.80
2023-03-06T00:11:26.073Z,7.80
2023-03-06T00:13:54.379Z,7.80
2023-03-06T00:16:23.206Z,7.80
2023-03-06T00:18:52.938Z,7.80
2023-03-06T00:21:21.244Z,7.80
2023-03-06T00:23:49.564Z,7.80
2023-03-06T00:26:17.856Z,7.70
2023-03-06T00:28:46.639Z,7.70
2023-03-06T00:31:15.259Z,7.80
2023-03-06T00:33:43.788Z,7.80
2023-03-06T00:36:13.524Z,7.70
2023-03-06T00:38:42.602Z,7.70
2023-03-06T00:41:12.270Z,7.70
2023-03-06T00:43:40.723Z,7.70
2023-03-06T00:46:09.859Z,7.70
2023-03-06T00:48:38.460Z,7.60
2023-03-06T00:51:07.256Z,7.60
2023-03-06T00:53:36.948Z,7.60
2023-03-06T00:56:05.460Z,7.60
2023-03-06T00:58:33.749Z,7.60
2023-03-06T01:01:02.145Z,7.50
2023-03-06T01:03:30.447Z,7.50
2023-03-06T01:05:59.141Z,7.50
2023-03-06T01:08:27.774Z,7.50
2023-03-06T01:10:59.724Z,7.50
2023-03-06T01:13:31.061Z,7.50
2023-03-06T01:16:08.028Z,7.60
2023-03-06T01:18:36.366Z,7.60
2023-03-06T01:21:04.990Z,7.60
2023-03-06T01:23:34.651Z,7.60
2023-03-06T01:26:04.720Z,7.60
2023-03-06T01:28:35.148Z,7.60
2023-03-06T01:31:04.330Z,7.60
2023-03-06T01:33:33.058Z,7.60
2023-03-06T01:36:01.722Z,7.60
2023-03-06T01:38:29.970Z,7.60
2023-03-06T01:40:58.211Z,7.60
2023-03-06T01:43:36.200Z,7.60
2023-03-06T01:46:29.537Z,7.60
2023-03-06T01:49:00.181Z,7.60
2023-03-06T01:51:32.372Z,7.60
2023-03-06T01:54:03.500Z,7.60
2023-03-06T01:56:43.371Z,7.60
2023-03-06T01:59:14.273Z,7.60
2023-03-06T02:01:44.565Z,7.60
2023-03-06T02:04:13.635Z,7.60
2023-03-06T02:06:44.234Z,7.60
2023-03-06T02:09:14.603Z,7.60
2023-03-06T02:11:44.216Z,7.50
2023-03-06T02:14:16.900Z,7.50
2023-03-06T02:16:45.730Z,7.50
2023-03-06T02:19:25.567Z,7.50
2023-03-06T02:21:53.829Z,7.50
2023-03-06T02:24:32.379Z,7.50
2023-03-06T02:27:05.374Z,7.50
2023-03-06T02:29:34.035Z,7.50
2023-03-06T02:32:05.068Z,7.40
2023-03-06T02:34:56.131Z,7.40
2023-03-06T02:37:26.449Z,7.50
2023-03-06T02:40:02.142Z,7.40
2023-03-06T02:42:32.157Z,7.40
2023-03-06T02:45:03.438Z,7.40
2023-03-06T02:47:31.970Z,7.40
2023-03-06T02:50:00.858Z,7.30
2023-03-06T02:52:29.222Z,7.30
2023-03-06T02:54:57.767Z,7.10
2023-03-06T02:57:26.246Z,7.10
2023-03-06T02:59:56.135Z,7.10
2023-03-06T03:02:24.769Z,7.10
2023-03-06T03:04:53.437Z,7.10
2023-03-06T03:07:21.910Z,7.10
2023-03-06T03:09:50.812Z,7.20
2023-03-06T03:12:19.131Z,7.10
2023-03-06T03:14:47.401Z,7.10
2023-03-06T03:17:17.392Z,7.10
2023-03-06T03:19:47.790Z,7.10
2023-03-06T03:22:17.396Z,7.10
2023-03-06T03:24:45.787Z,7.10
2023-03-06T03:27:14.960Z,7.10
2023-03-06T03:29:43.768Z,7.10
2023-03-06T03:32:12.446Z,7.10
2023-03-06T03:34:44.445Z,7.20
2023-03-06T03:37:12.711Z,7.20
2023-03-06T03:39:43.658Z,7.30
2023-03-06T03:42:13.468Z,7.10
2023-03-06T03:44:41.986Z,7.20
2023-03-06T03:47:10.432Z,6.90
2023-03-06T03:49:38.733Z,7.20
2023-03-06T03:52:08.888Z,7.20
2023-03-06T03:54:38.788Z,7.20
2023-03-06T03:57:10.228Z,7.30
2023-03-06T03:59:42.620Z,7.30
2023-03-06T04:02:29.342Z,7.20
2023-03-06T04:05:16.620Z,7.20
2023-03-06T04:07:46.475Z,7.20
2023-03-06T04:10:16.463Z,7.20
2023-03-06T04:12:45.372Z,7.20
2023-03-06T04:15:14.050Z,7.20
2023-03-06T04:17:42.741Z,7.20
2023-03-06T04:20:16.111Z,7.20
2023-03-06T04:22:46.723Z,7.20
2023-03-06T04:25:15.325Z,7.20
2023-03-06T04:27:43.598Z,7.20
2023-03-06T04:30:13.711Z,7.20
2023-03-06T04:32:42.571Z,7.20
2023-03-06T04:35:12.060Z,7.20
2023-03-06T04:37:51.691Z,7.20
2023-03-06T04:40:25.069Z,7.20
2023-03-06T04:42:53.549Z,7.10
2023-03-06T04:45:21.848Z,7.10
2023-03-06T04:47:50.432Z,7.10
2023-03-06T04:50:19.230Z,7.10
2023-03-06T04:52:47.972Z,7.10
2023-03-06T04:55:18.797Z,7.10
2023-03-06T04:57:48.298Z,7.10
2023-03-06T05:00:18.697Z,7.10
2023-03-06T05:02:47.852Z,7.10
2023-03-06T05:05:17.347Z,7.10
2023-03-06T05:07:46.239Z,7.10
2023-03-06T05:10:16.604Z,7.10
2023-03-06T05:12:46.476Z,7.10
2023-03-06T05:15:15.737Z,7.00
2023-03-06T05:17:44.377Z,7.30
2023-03-06T05:20:14.546Z,7.00
2023-03-06T05:22:43.184Z,6.90
2023-03-06T05:25:12.130Z,6.90
2023-03-06T05:27:40.803Z,7.00
2023-03-06T05:30:13.418Z,6.90
2023-03-06T05:32:42.953Z,6.90
2023-03-06T05:35:18.594Z,6.90
2023-03-06T05:37:47.300Z,6.90
2023-03-06T05:40:17.403Z,6.90
2023-03-06T05:42:45.940Z,6.90
2023-03-06T05:45:15.588Z,6.90
2023-03-06T05:47:44.048Z,6.90
2023-03-06T05:50:14.038Z,6.90
2023-03-06T05:52:42.729Z,6.90
2023-03-06T05:55:13.465Z,6.90
2023-03-06T05:57:41.818Z,7.00
2023-03-06T06:00:11.436Z,7.00
2023-03-06T06:02:44.404Z,7.00
2023-03-06T06:05:13.335Z,7.00
2023-03-06T06:07:42.222Z,7.00
2023-03-06T06:10:12.234Z,7.00
2023-03-06T06:12:41.113Z,7.00
2023-03-06T06:15:10.036Z,7.00
2023-03-06T06:17:38.393Z,7.00
2023-03-06T06:20:10.158Z,7.00
2023-03-06T06:22:38.879Z,7.00
2023-03-06T06:25:09.357Z,7.00
2023-03-06T06:27:38.059Z,7.10
2023-03-06T06:30:08.295Z,7.10
2023-03-06T06:32:37.829Z,7.10
2023-03-06T06:35:08.530Z,7.10
2023-03-06T06:37:37.024Z,7.10
2023-03-06T06:40:06.196Z,7.10
2023-03-06T06:42:39.888Z,7.10
2023-03-06T06:45:10.716Z,7.10
2023-03-06T06:47:41.340Z,7.00
2023-03-06T06:50:13.505Z,7.10
2023-03-06T06:52:41.996Z,7.10
2023-03-06T06:55:12.230Z,7.10
2023-03-06T06:57:41.862Z,7.10
2023-03-06T07:00:13.808Z,7.30
2023-03-06T07:02:42.420Z,7.10
2023-03-06T07:05:12.629Z,7.10
2023-03-06T07:07:40.979Z,7.10
2023-03-06T07:10:16.013Z,7.30
2023-03-06T07:12:44.988Z,7.10
2023-03-06T07:15:15.168Z,7.50
2023-03-06T07:17:43.691Z,7.10
2023-03-06T07:20:13.699Z,7.10
2023-03-06T07:22:50.789Z,7.10
2023-03-06T07:25:22.675Z,7.10
2023-03-06T07:27:54.173Z,7.10
2023-03-06T07:30:23.483Z,7.10
2023-03-06T07:32:55.072Z,7.10
2023-03-06T07:35:26.167Z,7.10
2023-03-06T07:37:54.825Z,7.10
2023-03-06T07:40:24.015Z,7.10
2023-03-06T07:42:56.522Z,7.10
2023-03-06T07:45:36.255Z,7.10
2023-03-06T07:48:05.669Z,7.10
2023-03-06T07:50:36.428Z,7.10
2023-03-06T07:53:04.761Z,6.70
2023-03-06T07:55:33.152Z,7.10
2023-03-06T07:58:01.459Z,7.10
2023-03-06T08:00:29.805Z,7.10
2023-03-06T08:02:58.231Z,7.40
2023-03-06T08:05:26.527Z,7.10
2023-03-06T08:07:56.161Z,7.10
2023-03-06T08:10:24.522Z,7.10
2023-03-06T08:12:52.768Z,7.10
2023-03-06T08:15:21.299Z,7.10
2023-03-06T08:17:50.515Z,7.10
2023-03-06T08:20:19.571Z,7.10
2023-03-06T08:22:49.049Z,7.10
2023-03-06T08:25:18.947Z,7.10
2023-03-06T08:27:47.905Z,7.10
2023-03-06T08:30:16.655Z,7.50
2023-03-06T08:32:45.651Z,7.10
2023-03-06T08:35:14.532Z,7.10
2023-03-06T08:37:42.978Z,7.10
2023-03-06T08:40:12.863Z,7.10
2023-03-06T08:42:42.638Z,7.10
2023-03-06T08:45:11.671Z,7.10
2023-03-06T08:47:40.140Z,7.10
2023-03-06T08:50:09.344Z,7.10
2023-03-06T08:52:37.611Z,7.10
2023-03-06T08:55:07.009Z,7.10
2023-03-06T08:57:35.395Z,7.10
2023-03-06T09:00:08.816Z,7.10
2023-03-06T09:02:38.930Z,7.10
2023-03-06T09:05:08.632Z,7.10
2023-03-06T09:07:37.214Z,7.10
2023-03-06T09:10:06.220Z,7.10
2023-03-06T09:12:47.361Z,7.10
2023-03-06T09:15:20.006Z,7.10
2023-03-06T09:17:48.976Z,7.10
2023-03-06T09:20:17.544Z,7.10
2023-03-06T09:22:45.988Z,7.10
2023-03-06T09:25:20.190Z,7.10
2023-03-06T09:27:58.349Z,7.10
2023-03-06T09:30:31.866Z,7.10
2023-03-06T09:33:00.236Z,7.10
2023-03-06T09:35:28.552Z,7.10
2023-03-06T09:37:56.935Z,7.10
2023-03-06T09:40:35.790Z,7.20
2023-03-06T09:43:04.095Z,7.20
2023-03-06T09:45:37.060Z,7.20
2023-03-06T09:48:14.698Z,7.20
2023-03-06T09:50:47.504Z,7.20
2023-03-06T09:53:33.840Z,7.10
2023-03-06T09:56:04.469Z,7.10
2023-03-06T09:58:38.909Z,7.20
2023-03-06T10:01:17.386Z,7.20
2023-03-06T10:03:50.703Z,7.10
2023-03-06T10:06:24.981Z,7.10
2023-03-06T10:08:58.499Z,7.10
2023-03-06T10:11:33.661Z,7.10
2023-03-06T10:14:15.141Z,7.10
2023-03-06T10:16:44.912Z,7.10
2023-03-06T10:19:16.616Z,7.10
2023-03-06T10:21:52.942Z,7.10
2023-03-06T10:24:45.233Z,7.10
2023-03-06T10:27:23.514Z,7.20
2023-03-06T10:30:03.835Z,7.20
2023-03-06T10:32:49.299Z,7.20
2023-03-06T10:35:21.664Z,7.20
2023-03-06T10:37:50.657Z,7.20
2023-03-06T10:40:21.731Z,7.30
2023-03-06T10:43:01.576Z,7.20
2023-03-06T10:45:49.772Z,6.90
2023-03-06T10:48:23.325Z,7.20
2023-03-06T10:50:53.034Z,7.20
2023-03-06T10:53:23.886Z,7.20
2023-03-06T10:55:55.704Z,7.10
2023-03-06T10:58:27.391Z,7.10
2023-03-06T11:01:05.051Z,7.20
2023-03-06T11:03:35.456Z,7.20
2023-03-06T11:06:07.870Z,7.20
2023-03-06T11:08:36.752Z,7.10
2023-03-06T11:11:07.472Z,7.20
2023-03-06T11:13:37.232Z,7.20
2023-03-06T11:16:15.101Z,7.10
2023-03-06T11:18:58.180Z,7.10
2023-03-06T11:21:31.424Z,7.10
2023-03-06T11:24:07.135Z,7.10
2023-03-06T11:26:46.846Z,7.10
2023-03-06T11:29:33.155Z,7.20
2023-03-06T11:32:10.369Z,7.20
2023-03-06T11:34:50.581Z,7.20
2023-03-06T11:37:29.535Z,7.20
2023-03-06T11:40:06.519Z,7.20
2023-03-06T11:42:40.380Z,7.30
2023-03-06T11:45:23.268Z,7.30
2023-03-06T11:47:59.025Z,7.30
2023-03-06T11:50:34.676Z,7.40
2023-03-06T11:53:04.510Z,7.40
2023-03-06T11:55:44.930Z,7.40
2023-03-06T11:58:47.320Z,7.50
2023-03-06T12:01:23.655Z,7.50
2023-03-06T12:04:02.536Z,7.50
2023-03-06T12:06:41.887Z,7.50
2023-03-06T12:09:26.234Z,7.50
2023-03-06T12:12:11.369Z,7.50
2023-03-06T12:15:09.677Z,7.50
2023-03-06T12:17:55.682Z,7.50
2023-03-06T12:20:36.084Z,7.50
2023-03-06T12:23:18.303Z,7.50
2023-03-06T12:25:54.266Z,7.50
2023-03-06T12:28:38.911Z,7.60
2023-03-06T12:31:31.269Z,7.60
2023-03-06T12:34:14.313Z,7.60
2023-03-06T12:36:53.488Z,7.80
2023-03-06T12:39:36.304Z,7.70
2023-03-06T12:42:23.570Z,7.70
2023-03-06T12:45:03.088Z,7.80
2023-03-06T12:47:37.276Z,7.80
2023-03-06T12:50:18.110Z,7.80
2023-03-06T12:52:48.314Z,7.80
2023-03-06T12:55:23.746Z,7.90
2023-03-06T12:57:53.990Z,7.90
2023-03-06T13:01:04.156Z,7.90
2023-03-06T13:03:45.023Z,7.90
2023-03-06T13:06:26.092Z,8.00
2023-03-06T13:09:23.079Z,8.00
2023-03-06T13:12:24.010Z,8.00
2023-03-06T13:14:58.428Z,8.00
2023-03-06T13:17:44.892Z,8.00
2023-03-06T13:20:35.567Z,8.10
2023-03-06T13:23:44.185Z,8.10
2023-03-06T13:26:31.462Z,8.10
2023-03-06T13:29:00.269Z,8.10
2023-03-06T13:31:51.406Z,8.10
2023-03-06T13:34:36.391Z,8.10
2023-03-06T13:37:38.257Z,8.10
2023-03-06T13:40:30.987Z,8.20
2023-03-06T13:43:23.082Z,8.20
2023-03-06T13:45:52.036Z,8.30
2023-03-06T13:48:47.664Z,8.30
2023-03-06T13:51:24.592Z,8.50
2023-03-06T13:54:21.830Z,8.30
2023-03-06T13:57:25.235Z,8.30
2023-03-06T14:00:11.870Z,8.40
2023-03-06T14:03:12.904Z,8.40
2023-03-06T14:05:49.954Z,8.40
2023-03-06T14:08:20.482Z,8.40
2023-03-06T14:10:58.949Z,8.40
2023-03-06T14:13:38.437Z,8.40
2023-03-06T14:16:20.433Z,8.40
2023-03-06T14:18:50.644Z,8.40
2023-03-06T14:21:30.815Z,8.40
2023-03-06T14:24:01.008Z,8.40
2023-03-06T14:26:33.723Z,8.50
2023-03-06T14:29:03.760Z,8.50
2023-03-06T14:31:34.664Z,8.50
2023-03-06T14:34:06.262Z,8.50
2023-03-06T14:36:43.155Z,8.50
2023-03-06T14:39:15.823Z,8.50
2023-03-06T14:41:44.311Z,8.50
2023-03-06T14:44:21.533Z,8.60
2023-03-06T14:46:51.571Z,8.60
2023-03-06T14:49:21.265Z,8.60
2023-03-06T14:51:53.017Z,8.60
2023-03-06T14:54:25.588Z,8.60
2023-03-06T14:56:59.827Z,8.60
2023-03-06T14:59:31.637Z,8.60
2023-03-06T15:02:02.305Z,8.60
2023-03-06T15:04:36.687Z,8.60
2023-03-06T15:07:11.694Z,8.60
2023-03-06T15:09:44.635Z,8.60
2023-03-06T15:12:35.026Z,8.60
2023-03-06T15:15:05.675Z,8.60
2023-03-06T15:17:41.014Z,8.70
2023-03-06T15:20:43.752Z,8.60
2023-03-06T15:23:20.184Z,8.70
2023-03-06T15:26:02.084Z,8.70
2023-03-06T15:28:37.094Z,8.70
2023-03-06T15:31:20.638Z,8.70
2023-03-06T15:34:16.829Z,8.70
2023-03-06T15:36:47.378Z,8.70
2023-03-06T15:39:35.881Z,8.70
2023-03-06T15:42:15.738Z,8.70
2023-03-06T15:44:44.208Z,8.70
2023-03-06T15:47:13.064Z,8.70
2023-03-06T15:49:41.879Z,8.80
2023-03-06T15:52:10.708Z,8.70
2023-03-06T15:54:40.596Z,8.80
2023-03-06T15:57:20.143Z,8.80
2023-03-06T15:59:48.484Z,8.80
2023-03-06T16:02:18.254Z,8.80
2023-03-06T16:04:47.251Z,8.80
2023-03-06T16:07:16.508Z,8.80
2023-03-06T16:09:46.624Z,8.80
2023-03-06T16:12:17.792Z,8.80
2023-03-06T16:14:47.385Z,8.80
2023-03-06T16:17:16.319Z,8.70
2023-03-06T16:19:45.330Z,8.70
2023-03-06T16:22:14.015Z,8.70
2023-03-06T16:24:43.456Z,8.70
2023-03-06T16:27:18.859Z,8.70
2023-03-06T16:29:47.187Z,8.70
2023-03-06T16:32:15.561Z,8.70
2023-03-06T16:34:43.925Z,8.70
2023-03-06T16:37:14.062Z,8.70
2023-03-06T16:39:42.599Z,8.70
2023-03-06T16:42:11.459Z,8.60
2023-03-06T16:44:41.867Z,8.70
2023-03-06T16:47:11.932Z,8.70
2023-03-06T16:49:40.304Z,8.60
2023-03-06T16:52:09.993Z,8.60
2023-03-06T16:54:38.325Z,8.60
2023-03-06T16:57:06.770Z,8.60
2023-03-06T16:59:35.184Z,8.60
2023-03-06T17:02:05.165Z,8.60
2023-03-06T17:04:33.490Z,8.60
2023-03-06T17:07:01.919Z,8.60
2023-03-06T17:09:30.334Z,8.60
2023-03-06T17:11:58.701Z,8.60
2023-03-06T17:14:27.051Z,8.60
2023-03-06T17:16:55.538Z,8.60
2023-03-06T17:19:25.890Z,8.60
2023-03-06T17:21:54.356Z,8.60
2023-03-06T17:24:22.628Z,8.60
2023-03-06T17:26:51.406Z,8.60
2023-03-06T17:29:19.886Z,8.60
2023-03-06T17:31:48.217Z,8.60
2023-03-06T17:34:16.565Z,8.60
2023-03-06T17:36:46.297Z,8.60
2023-03-06T17:39:15.026Z,8.70
2023-03-06T17:41:45.909Z,8.60
2023-03-06T17:44:16.405Z,8.70
2023-03-06T17:46:45.144Z,8.70
2023-03-06T17:49:13.526Z,8.70
2023-03-06T17:51:41.950Z,8.70
2023-03-06T17:54:11.728Z,8.60
2023-03-06T17:56:40.170Z,8.70
2023-03-06T17:59:08.757Z,8.70
2023-03-06T18:01:38.453Z,8.70
2023-03-06T18:04:07.793Z,8.70
2023-03-06T18:06:36.261Z,8.70
2023-03-06T18:09:05.359Z,8.70
2023-03-06T18:11:35.378Z,8.60
2023-03-06T18:14:05.535Z,8.60
2023-03-06T18:16:34.452Z,8.60
2023-03-06T18:19:03.126Z,8.60
2023-03-06T18:21:31.461Z,8.60
2023-03-06T18:23:59.772Z,8.80
2023-03-06T18:26:29.924Z,8.60
2023-03-06T18:29:03.664Z,8.60
2023-03-06T18:31:34.650Z,8.60
2023-03-06T18:34:05.932Z,8.60
2023-03-06T18:36:35.101Z,8.60
2023-03-06T18:39:04.775Z,8.60
2023-03-06T18:41:33.761Z,8.60
2023-03-06T18:44:03.894Z,8.60
2023-03-06T18:46:34.291Z,8.60
2023-03-06T18:49:03.419Z,8.60
2023-03-06T18:51:32.171Z,8.60
2023-03-06T18:54:01.772Z,8.70
2023-03-06T18:56:30.366Z,8.60
2023-03-06T18:59:04.444Z,8.60
2023-03-06T19:01:33.488Z,8.60
2023-03-06T19:04:02.591Z,8.60
2023-03-06T19:06:31.524Z,8.50
2023-03-06T19:09:01.837Z,8.60
2023-03-06T19:11:30.843Z,8.50
2023-03-06T19:13:59.732Z,8.60
2023-03-06T19:16:31.190Z,8.60
2023-03-06T19:19:00.258Z,8.60
2023-03-06T19:21:29.540Z,8.60
2023-03-06T19:23:58.564Z,8.60
2023-03-06T19:26:28.044Z,8.60
2023-03-06T19:28:56.396Z,8.50
2023-03-06T19:31:27.154Z,8.50
2023-03-06T19:33:57.716Z,8.50
2023-03-06T19:36:33.498Z,8.50
2023-03-06T19:39:04.264Z,8.50
2023-03-06T19:41:32.712Z,8.80
2023-03-06T19:44:02.694Z,8.50
2023-03-06T19:46:31.932Z,8.40
2023-03-06T19:49:03.474Z,8.40
2023-03-06T19:51:31.963Z,8.40
2023-03-06T19:54:00.344Z,8.40
2023-03-06T19:56:31.936Z,8.40
2023-03-06T19:59:00.253Z,8.40
2023-03-06T20:01:29.771Z,8.40
2023-03-06T20:03:59.736Z,8.30
2023-03-06T20:06:34.456Z,8.30
2023-03-06T20:09:04.542Z,8.30
2023-03-06T20:11:33.073Z,8.30
2023-03-06T20:14:03.830Z,8.30
2023-03-06T20:16:33.343Z,8.30
2023-03-06T20:19:02.739Z,8.30
2023-03-06T20:21:35.458Z,8.30
2023-03-06T20:24:04.430Z,8.30
2023-03-06T20:26:34.156Z,8.30
2023-03-06T20:29:02.874Z,8.30
2023-03-06T20:31:31.810Z,8.30
2023-03-06T20:34:00.678Z,8.20
2023-03-06T20:36:31.161Z,8.20
2023-03-06T20:39:02.525Z,8.20
2023-03-06T20:41:32.214Z,8.20
2023-03-06T20:44:01.875Z,8.20
2023-03-06T20:46:31.320Z,8.20
2023-03-06T20:49:00.176Z,8.20
2023-03-06T20:51:31.641Z,8.20
2023-03-06T20:54:02.871Z,8.20
2023-03-06T20:56:33.515Z,8.20
2023-03-06T20:59:02.406Z,8.20
2023-03-06T21:01:32.812Z,8.20
2023-03-06T21:04:02.234Z,8.20
2023-03-06T21:06:31.506Z,8.20
2023-03-06T21:09:02.121Z,8.20
2023-03-06T21:11:30.491Z,8.20
2023-03-06T21:13:59.191Z,8.20
2023-03-06T21:16:28.992Z,8.20
2023-03-06T21:18:58.598Z,8.20
2023-03-06T21:21:29.039Z,8.20
2023-03-06T21:23:57.563Z,8.20
2023-03-06T21:26:29.575Z,8.10
2023-03-06T21:28:59.192Z,8.10
2023-03-06T21:31:28.412Z,8.10
2023-03-06T21:33:56.904Z,8.20
2023-03-06T21:36:25.360Z,8.10
2023-03-06T21:38:53.958Z,8.10
2023-03-06T21:41:25.292Z,8.10
2023-03-06T21:43:59.537Z,8.10
2023-03-06T21:46:28.948Z,8.10
2023-03-06T21:48:58.175Z,8.10
2023-03-06T21:51:27.689Z,8.10
2023-03-06T21:53:56.833Z,8.10
2023-03-06T21:56:28.461Z,8.10
2023-03-06T21:58:58.608Z,8.10
2023-03-06T22:01:30.087Z,8.00
2023-03-06T22:04:00.066Z,8.00
2023-03-06T22:06:30.302Z,8.20
2023-03-06T22:09:00.016Z,8.00
2023-03-06T22:11:34.288Z,8.00
2023-03-06T22:14:04.353Z,8.00
2023-03-06T22:16:33.286Z,8.00
2023-03-06T22:19:01.762Z,8.00
2023-03-06T22:21:30.121Z,8.00
2023-03-06T22:24:00.720Z,8.00
2023-03-06T22:26:30.262Z,8.00
2023-03-06T22:28:58.907Z,8.10
2023-03-06T22:31:29.756Z,8.00
2023-03-06T22:33:59.646Z,8.00
2023-03-06T22:36:30.341Z,8.00
2023-03-06T22:39:00.388Z,8.00
2023-03-06T22:41:28.836Z,8.00
2023-03-06T22:43:57.862Z,8.00
2023-03-06T22:46:28.357Z,8.00
2023-03-06T22:48:57.475Z,8.00
2023-03-06T22:51:26.426Z,8.00
2023-03-06T22:53:55.439Z,8.00
2023-03-06T22:56:24.563Z,8.00
2023-03-06T22:58:52.904Z,8.00
2023-03-06T23:01:23.213Z,8.00
2023-03-06T23:03:54.204Z,8.00
2023-03-06T23:06:24.110Z,8.00
2023-03-06T23:08:54.267Z,8.00
2023-03-06T23:11:23.191Z,8.00
2023-03-06T23:14:12.137Z,8.20
2023-03-06T23:16:58.960Z,8.00
2023-03-06T23:19:50.539Z,8.00
2023-03-06T23:22:37.686Z,8.00
2023-03-06T23:25:24.551Z,8.00
2023-03-06T23:27:52.867Z,8.00
2023-03-06T23:30:21.357Z,8.00
2023-03-06T23:32:49.731Z,7.90
2023-03-06T23:35:19.415Z,7.90
2023-03-06T23:37:47.744Z,7.90
2023-03-06T23:40:16.924Z,7.90
2023-03-06T23:42:45.763Z,7.90
2023-03-06T23:45:13.996Z,7.90
2023-03-06T23:47:42.300Z,7.90
2023-03-06T23:50:11.789Z,7.90
2023-03-06T23:52:41.480Z,7.90
2023-03-06T23:55:10.300Z,7.90
2023-03-06T23:57:38.558Z,7.90
